Weather reports worldwide

Advertisment
Navacerrada, Spain (8215): temperature & dewpoint: 22.03.2020 22:00:00 - 28.03.2020 22:00:00 (CET)Navacerrada, Spain (8215): wind speed: 22.03.2020 22:00:00 - 28.03.2020 22:00:00 (CET)Navacerrada, Spain (8215): wind direction: 22.03.2020 22:00:00 - 28.03.2020 22:00:00 (CET)Navacerrada, Spain (8215): visibility: 22.03.2020 22:00:00 - 28.03.2020 22:00:00 (CET)Navacerrada, Spain (8215): precipitation: 22.03.2020 22:00:00 - 28.03.2020 22:00:00 (CET)
Date & Time tt [°C] td [°C] ff [km/h] ff [kn] dd vv [km] rr [mm]
28.03.2020 22:00:00 - - - - - - -
28.03.2020 21:00:00 2,0 -2,5 4 2 E 20 0,0
28.03.2020 20:00:00 2,3 -3,4 13 7 SSE 20 0,0
28.03.2020 19:00:00 3,9 -2,1 11 6 S 20 -
28.03.2020 18:00:00 5,1 -1,6 13 7 S 20 0,0
28.03.2020 17:00:00 5,9 -1,3 11 6 S 20 0,0
28.03.2020 16:00:00 7,0 -1,2 8 4 S 30 -
28.03.2020 15:00:00 7,4 -1,8 8 4 SW 20 0,0
28.03.2020 14:00:00 6,9 -2,6 8 4 NE 20 0,0
28.03.2020 13:00:00 7,7 -2,4 8 4 E 30 -
28.03.2020 12:00:00 7,5 -2,0 9 5 SE 20 0,0
28.03.2020 11:00:00 6,0 -3,1 9 5 ESE 20 0,0
28.03.2020 10:00:00 3,8 -6,2 8 4 E 30 -
28.03.2020 09:00:00 1,3 -6,1 5 3 ESE 20 0,0
28.03.2020 08:00:00 -2,1 -6,8 4 2 N 20 0,0
28.03.2020 07:00:00 -2,4 -6,8 8 4 SE 15 -
28.03.2020 06:00:00 -2,4 -6,6 9 5 SE 20 0,0
28.03.2020 05:00:00 -2,4 -7,1 8 4 E 20 0,0
28.03.2020 04:00:00 -2,6 -6,6 5 3 E 20 -
28.03.2020 03:00:00 -3,1 -4,8 8 4 E 20 0,0
28.03.2020 02:00:00 -2,8 -4,7 11 6 E 20 0,0
28.03.2020 01:00:00 -2,4 -4,4 11 6 E 20 -
28.03.2020 00:00:00 -2,5 -4,7 9 5 E 20 0,0
27.03.2020 23:00:00 -1,9 -4,9 9 5 SE 20 0,0
27.03.2020 22:00:00 -2,3 -5,0 13 7 ESE 20 -
27.03.2020 21:00:00 -2,0 -4,2 16 9 SE 20 0,0
27.03.2020 20:00:00 -1,7 -4,7 13 7 SSE 20 0,0
27.03.2020 19:00:00 0,5 -5,9 5 3 SE 25 -
27.03.2020 18:00:00 1,1 -5,6 15 8 ESE 20 0,0
27.03.2020 17:00:00 1,1 -5,8 24 13 ESE 20 0,0
27.03.2020 16:00:00 2,3 -4,5 13 7 E 30 -
27.03.2020 15:00:00 2,7 -5,0 21 11 E 20 0,0
27.03.2020 14:00:00 3,0 -3,8 16 9 E 20 0,0
27.03.2020 13:00:00 2,2 -5,5 22 12 E 30 -
27.03.2020 12:00:00 -0,6 -6,2 15 8 E 20 0,0
27.03.2020 11:00:00 -0,7 -4,9 8 4 NE 20 0,0
27.03.2020 10:00:00 0,2 -3,4 9 5 SE 20 -
27.03.2020 09:00:00 -2,6 -4,5 9 5 E 19 0,0
27.03.2020 08:00:00 -3,7 -5,0 8 4 SSE 19 0,0
27.03.2020 07:00:00 -4,2 -5,3 11 6 SSE 10 -
27.03.2020 06:00:00 -3,7 -5,1 11 6 SSE 18 0,0
27.03.2020 05:00:00 -3,8 -5,1 5 3 SE 19 0,0
27.03.2020 04:00:00 -3,7 -4,7 9 5 SSE 18 -
27.03.2020 03:00:00 -2,4 -4,3 15 8 S 20 0,0
27.03.2020 02:00:00 -1,4 -3,8 9 5 W 20 0,0
27.03.2020 01:00:00 -1,6 -3,8 4 2 N 20 -
27.03.2020 00:00:00 -2,2 -4,1 5 3 E 20 0,0
26.03.2020 23:00:00 -2,1 -4,1 9 5 E 20 0,0
26.03.2020 22:00:00 -1,9 -4,1 13 7 N 20 -
26.03.2020 21:00:00 -1,7 -4,0 15 8 N 20 0,0
26.03.2020 20:00:00 -1,8 -4,1 16 9 N 20 0,0
26.03.2020 19:00:00 -0,2 -3,7 11 6 N 25 -
26.03.2020 18:00:00 1,5 -4,0 15 8 N 20 0,0
26.03.2020 17:00:00 2,3 -3,8 15 8 NNW 20 0,0
26.03.2020 16:00:00 2,3 -3,4 22 12 N 40 -
26.03.2020 15:00:00 3,1 -3,7 18 10 NNW 20 0,0
26.03.2020 14:00:00 2,9 -3,2 16 9 N 20 0,0
26.03.2020 13:00:00 1,7 -5,0 21 11 N 50 -
26.03.2020 12:00:00 1,6 -6,0 18 10 N 20 0,0
26.03.2020 11:00:00 0,7 -5,5 18 10 N 20 0,0
26.03.2020 10:00:00 -0,6 -10,5 21 11 N 30 -
26.03.2020 09:00:00 -2,3 -13,5 28 15 N 20 0,0
26.03.2020 08:00:00 -3,2 -14,3 24 13 N 20 0,0
26.03.2020 07:00:00 -3,4 -15,7 28 15 N 10 -
26.03.2020 06:00:00 -3,3 -16,6 28 15 N 20 0,0
26.03.2020 05:00:00 -2,8 -15,2 26 14 N 20 0,0
26.03.2020 04:00:00 -2,0 -15,1 21 11 N 20 -
26.03.2020 03:00:00 -1,2 -12,5 16 9 NNW 20 0,0
26.03.2020 02:00:00 0,0 -9,2 15 8 NNW 20 0,0
26.03.2020 01:00:00 0,9 -8,4 15 8 N 20 -
26.03.2020 00:00:00 0,3 -3,1 13 7 N 20 0,0
25.03.2020 23:00:00 1,3 -5,4 15 8 NNW 20 0,0
25.03.2020 22:00:00 2,0 -5,9 15 8 NNW 20 -
25.03.2020 21:00:00 2,5 -5,9 18 10 N 20 0,0
25.03.2020 20:00:00 2,8 -4,2 18 10 N 20 0,0
25.03.2020 19:00:00 4,3 -1,5 13 7 NW 25 -
25.03.2020 18:00:00 5,3 -3,3 16 9 NNW 20 0,0
25.03.2020 17:00:00 6,7 -1,2 16 9 NNW 20 0,0
25.03.2020 16:00:00 6,1 -0,2 13 7 NNW 30 -
25.03.2020 15:00:00 5,8 0,1 9 5 NW 20 0,0
25.03.2020 14:00:00 5,7 -0,4 15 8 NNW 20 0,0
25.03.2020 13:00:00 5,0 1,1 11 6 NNW 30 -
25.03.2020 12:00:00 4,7 0,6 13 7 N 20 0,0
25.03.2020 11:00:00 2,7 1,2 11 6 NNW 20 0,0
25.03.2020 10:00:00 0,9 0,9 8 4 NNE 10 -
25.03.2020 09:00:00 0,2 0,2 11 6 N 0,7 0,0
25.03.2020 08:00:00 0,1 0,1 9 5 N 14 0,0
25.03.2020 07:00:00 0,1 0,0 13 7 NNE 10 -
25.03.2020 06:00:00 0,3 0,3 11 6 N 20 0,0
25.03.2020 05:00:00 0,3 0,3 5 3 ENE 19 0,0
25.03.2020 04:00:00 0,5 0,5 4 2 S 18 -
25.03.2020 03:00:00 -0,2 -0,2 13 7 S 11 0,0
25.03.2020 02:00:00 -0,3 -0,3 18 10 SSE 17 0,0
25.03.2020 01:00:00 0,3 -0,1 16 9 S 20 -
25.03.2020 00:00:00 0,9 0,2 15 8 SSE 20 0,0
24.03.2020 23:00:00 1,2 0,3 8 4 SSE 20 0,0
24.03.2020 22:00:00 1,7 0,2 13 7 SSE 20 -
24.03.2020 21:00:00 1,7 -0,1 11 6 E 20 0,0
24.03.2020 20:00:00 2,2 0,3 8 4 E 20 0,0
24.03.2020 19:00:00 3,0 0,9 9 5 E 25 -
24.03.2020 18:00:00 4,1 1,1 13 7 E 20 0,0
24.03.2020 17:00:00 4,7 1,9 18 10 E 20 0,0
24.03.2020 16:00:00 5,7 2,0 11 6 E 30 -
24.03.2020 15:00:00 4,6 2,3 16 9 ENE 20 0,0
24.03.2020 14:00:00 3,7 1,9 9 5 ENE 20 0,0
24.03.2020 13:00:00 3,4 1,8 9 5 NE 20 -
24.03.2020 12:00:00 4,0 2,2 18 10 ENE 20 0,0
24.03.2020 11:00:00 2,9 1,9 24 13 ENE 20 0,0
24.03.2020 10:00:00 1,2 1,2 18 10 E 20 -
24.03.2020 09:00:00 0,9 0,8 9 5 ENE 20 0,0
24.03.2020 08:00:00 0,4 0,4 21 11 E 20 0,0
24.03.2020 07:00:00 0,1 0,0 9 5 E 10 -
24.03.2020 06:00:00 0,6 0,3 21 11 E 20 0,0
24.03.2020 05:00:00 0,6 0,6 29 16 E 20 0,0
24.03.2020 04:00:00 0,8 0,8 22 12 E 20 -
24.03.2020 03:00:00 1,1 1,1 13 7 E 20 0,0
24.03.2020 02:00:00 1,4 1,4 18 10 ESE 20 0,0
24.03.2020 01:00:00 1,4 1,4 21 11 E 20 -
24.03.2020 00:00:00 1,4 1,4 21 11 E 16 0,0
23.03.2020 23:00:00 1,5 1,5 26 14 ESE 20 0,0
23.03.2020 22:00:00 1,3 1,0 26 14 ESE 20 -
23.03.2020 21:00:00 1,3 1,0 34 18 E 20 0,0
23.03.2020 20:00:00 0,9 0,6 22 12 E 20 0,0
23.03.2020 19:00:00 1,5 1,2 16 9 E 20 -
23.03.2020 18:00:00 2,7 1,8 21 11 ESE 20 0,0
23.03.2020 17:00:00 3,9 2,1 18 10 E 20 0,0
23.03.2020 16:00:00 3,4 1,9 28 15 ESE 25 -
23.03.2020 15:00:00 3,6 2,7 16 9 E 20 0,0
23.03.2020 14:00:00 4,3 4,3 11 6 E 7 0,6
23.03.2020 13:00:00 2,2 1,8 18 10 E 0,8 -
23.03.2020 12:00:00 3,5 3,4 18 10 E 11 0,0
23.03.2020 11:00:00 3,0 2,6 15 8 E 16 0,2
23.03.2020 10:00:00 1,7 1,7 13 7 E 10 -
23.03.2020 09:00:00 1,0 1,0 13 7 ENE 20 0,0
23.03.2020 08:00:00 0,0 0,0 18 10 E 20 0,0
23.03.2020 07:00:00 -0,1 -0,1 8 4 E 0,5 -
23.03.2020 06:00:00 0,1 0,1 8 4 E 2,9 0,2
23.03.2020 05:00:00 0,3 0,3 4 2 E 1,1 0,0
23.03.2020 04:00:00 0,4 0,4 15 8 E 3,9 -
23.03.2020 03:00:00 0,5 0,5 8 4 E 6 0,0
23.03.2020 02:00:00 0,3 0,3 8 4 E 16 0,0
23.03.2020 01:00:00 0,4 0,4 15 8 E 6 -
23.03.2020 00:00:00 0,5 0,5 11 6 E 9 0,0
22.03.2020 23:00:00 0,8 0,8 11 6 E 9 0,2
22.03.2020 22:00:00 1,1 1,1 13 7 E 11 -

tt = temperature
td = dewpoint
ff = wind speed
dd = wind direction
vv = visibility
rr = precipitation

Next stations